Time;durP1;ratioP1;P1;durP2;ratioP2;P2;SDS_P1;SDS_P2;PMS_P1;PMS_P2;Temp;Humidity;BMP_temperature;BMP_pressure;BME280_temperature;BME280_humidity;BME280_pressure;Samples;Min_cycle;Max_cycle;Signal;HPM_P1;HPM_P2
2022/03/16 00:02:26;;;;;;;17.58;14.52;;;;;;;10.85;55.44;102356.94;5104801;28;20063;-60
2022/03/16 00:04:55;;;;;;;21.92;15.13;;;;;;;10.84;55.25;102359.81;5105053;28;20063;-59
2022/03/16 00:07:24;;;;;;;19.92;15.10;;;;;;;10.84;55.24;102354.44;5106303;28;20566;-59
2022/03/16 00:09:53;;;;;;;19.08;14.40;;;;;;;10.81;55.85;102355.63;5106498;28;20048;-59
2022/03/16 00:12:20;;;;;;;17.83;14.13;;;;;;;10.80;55.68;102353.97;5105160;28;20052;-59
2022/03/16 00:14:48;;;;;;;18.38;13.98;;;;;;;10.80;55.71;102359.34;5105560;28;20189;-58
2022/03/16 00:17:17;;;;;;;18.73;14.32;;;;;;;10.80;55.46;102358.50;5094124;28;20080;-58
2022/03/16 00:19:45;;;;;;;21.77;15.05;;;;;;;10.76;55.33;102364.25;5105995;28;20048;-58
2022/03/16 00:22:13;;;;;;;23.65;15.32;;;;;;;10.75;55.33;102367.13;5106688;28;20063;-58
2022/03/16 00:24:40;;;;;;;18.85;13.90;;;;;;;10.75;55.69;102361.75;5106063;28;20079;-60
2022/03/16 00:27:10;;;;;;;18.30;14.73;;;;;;;10.72;55.56;102368.34;5103803;28;20092;-59
2022/03/16 00:29:38;;;;;;;18.15;14.50;;;;;;;10.71;55.38;102363.16;5105485;28;20116;-59
2022/03/16 00:32:06;;;;;;;18.75;14.35;;;;;;;10.70;55.44;102367.69;5100549;28;20048;-59
2022/03/16 00:34:34;;;;;;;24.50;14.88;;;;;;;10.68;55.61;102361.66;5104768;28;20450;-59
2022/03/16 00:37:02;;;;;;;21.02;15.73;;;;;;;10.67;55.80;102357.31;5105424;28;20044;-59
2022/03/16 00:39:29;;;;;;;21.08;14.63;;;;;;;10.65;55.64;102358.50;5100609;28;20068;-59
2022/03/16 00:41:57;;;;;;;19.98;14.93;;;;;;;10.65;55.76;102353.13;5087278;28;20124;-59
2022/03/16 00:44:28;;;;;;;21.05;15.07;;;;;;;10.51;55.55;102327.09;5098025;28;20055;-59
2022/03/16 00:46:56;;;;;;;21.00;15.30;;;;;;;10.62;55.67;102348.13;5106094;28;20457;-58
2022/03/16 00:49:24;;;;;;;18.85;14.70;;;;;;;10.59;55.42;102349.34;5102419;28;20055;-60
2022/03/16 00:51:52;;;;;;;24.13;15.55;;;;;;;10.58;55.96;102344.16;5104963;28;20068;-59
2022/03/16 00:54:19;;;;;;;20.25;14.82;;;;;;;10.56;55.71;102344.34;5099216;28;20068;-59
2022/03/16 00:56:47;;;;;;;19.48;14.07;;;;;;;10.55;55.53;102347.19;5097549;28;20048;-60
2022/03/16 00:59:15;;;;;;;20.27;13.82;;;;;;;10.55;55.73;102347.19;5098779;28;20067;-59
2022/03/16 01:01:44;;;;;;;18.65;13.85;;;;;;;10.55;55.83;102352.59;5097455;28;20052;-59
2022/03/16 01:04:12;;;;;;;22.73;15.38;;;;;;;10.52;55.95;102355.63;5101992;28;20450;-59
2022/03/16 01:06:39;;;;;;;21.52;14.85;;;;;;;10.53;55.54;102351.94;5096453;28;20585;-59
2022/03/16 01:09:07;;;;;;;22.15;15.10;;;;;;;10.50;55.63;102353.13;5099482;28;20539;-60
2022/03/16 01:11:35;;;;;;;18.00;13.52;;;;;;;10.49;55.83;102354.16;5097493;28;20083;-60
2022/03/16 01:14:02;;;;;;;22.50;14.75;;;;;;;10.48;56.08;102348.97;5105649;28;20067;-60
2022/03/16 01:16:32;;;;;;;23.20;14.93;;;;;;;10.49;55.62;102353.31;5100864;28;20075;-61
2022/03/16 01:19:02;;;;;;;19.88;14.60;;;;;;;10.48;56.11;102354.34;5100135;28;20048;-60
2022/03/16 01:21:29;;;;;;;19.70;14.27;;;;;;;10.46;55.75;102351.00;5098263;28;20079;-60
2022/03/16 01:23:57;;;;;;;19.38;14.43;;;;;;;10.44;55.60;102348.50;5102427;28;20072;-59
2022/03/16 01:26:25;;;;;;;22.35;14.77;;;;;;;10.41;55.60;102347.00;5093379;28;20068;-61
2022/03/16 01:28:53;;;;;;;17.92;13.20;;;;;;;10.42;56.39;102351.38;5103057;28;20485;-61
2022/03/16 01:31:22;;;;;;;21.67;14.57;;;;;;;10.42;56.32;102345.16;5105220;28;20044;-61
2022/03/16 01:33:49;;;;;;;18.90;13.20;;;;;;;10.40;55.80;102341.84;5102475;28;20047;-62
2022/03/16 01:36:18;;;;;;;18.08;14.75;;;;;;;10.40;56.23;102337.28;5103743;28;20080;-60
2022/03/16 01:38:47;;;;;;;18.10;13.05;;;;;;;10.39;56.05;102324.88;5104488;28;20638;-60
2022/03/16 01:41:15;;;;;;;17.48;12.93;;;;;;;10.38;55.91;102328.59;5104958;28;20063;-59
2022/03/16 01:43:43;;;;;;;18.90;13.15;;;;;;;10.36;56.38;102314.50;5103198;28;20075;-60
2022/03/16 01:46:10;;;;;;;18.50;14.10;;;;;;;10.36;56.05;102311.00;5100923;28;20072;-60
2022/03/16 01:48:38;;;;;;;19.10;13.82;;;;;;;10.34;56.26;102319.22;5104912;28;20053;-60
2022/03/16 01:51:06;;;;;;;17.75;13.45;;;;;;;10.33;56.08;102320.25;5102660;28;20051;-58
2022/03/16 01:53:35;;;;;;;17.67;12.65;;;;;;;10.31;56.21;102316.91;5104382;28;20088;-58
2022/03/16 01:56:03;;;;;;;18.13;13.13;;;;;;;10.26;56.14;102302.38;5104992;28;20047;-60
2022/03/16 01:58:31;;;;;;;18.25;13.15;;;;;;;10.29;56.19;102313.56;5100143;28;20082;-59
2022/03/16 02:00:58;;;;;;;18.52;12.82;;;;;;;10.29;55.82;102304.69;5096539;28;20082;-59
2022/03/16 02:03:26;;;;;;;18.50;12.38;;;;;;;10.28;55.68;102297.63;5104941;28;20083;-59
2022/03/16 02:05:55;;;;;;;18.98;12.70;;;;;;;10.28;55.90;102295.78;5102398;28;20067;-59
2022/03/16 02:08:23;;;;;;;17.27;11.95;;;;;;;10.26;56.42;102295.13;5102606;28;20075;-60
2022/03/16 02:10:52;;;;;;;17.05;12.55;;;;;;;10.25;56.00;102300.69;5094496;28;20051;-60
2022/03/16 02:13:20;;;;;;;16.83;11.77;;;;;;;10.25;55.61;102311.44;5101738;28;20054;-59
2022/03/16 02:15:48;;;;;;;15.25;11.82;;;;;;;10.24;55.97;102307.09;5101536;28;20411;-59
2022/03/16 02:18:15;;;;;;;15.75;11.27;;;;;;;10.24;55.68;102307.09;5104712;28;20040;-59
2022/03/16 02:20:43;;;;;;;17.25;12.10;;;;;;;10.19;55.76;102296.03;5103086;28;20086;-59
2022/03/16 02:23:12;;;;;;;16.38;11.38;;;;;;;10.19;55.84;102302.22;5103454;28;20048;-59
2022/03/16 02:25:49;;;;;;;14.60;11.40;;;;;;;10.20;55.91;102297.72;5096560;28;20059;-60
2022/03/16 02:28:17;;;;;;;14.90;11.05;;;;;;;10.18;55.78;102294.34;5090944;28;20068;-59
2022/03/16 02:30:45;;;;;;;15.45;10.75;;;;;;;10.16;56.36;102291.84;5103903;28;20497;-58
2022/03/16 02:33:13;;;;;;;14.75;10.63;;;;;;;10.15;56.02;102300.94;5096981;28;20442;-58
2022/03/16 02:35:40;;;;;;;14.05;10.77;;;;;;;10.15;55.83;102300.09;5103287;28;20052;-59
2022/03/16 02:38:08;;;;;;;13.70;10.38;;;;;;;10.13;55.87;102294.91;5101848;28;20088;-59
2022/03/16 02:40:38;;;;;;;18.42;10.80;;;;;;;10.12;55.80;102298.59;5103875;28;20051;-60
2022/03/16 02:43:05;;;;;;;16.40;10.77;;;;;;;10.12;56.41;102290.56;5103822;28;20056;-60
2022/03/16 02:45:33;;;;;;;15.38;11.38;;;;;;;10.11;55.75;102291.56;5102074;28;20071;-61
2022/03/16 02:48:01;;;;;;;13.73;10.13;;;;;;;10.09;55.72;102285.53;5102228;28;20048;-60
2022/03/16 02:50:29;;;;;;;15.95;10.95;;;;;;;10.09;56.05;102280.16;5100430;28;20047;-59
2022/03/16 02:52:56;;;;;;;12.45;9.85;;;;;;;10.08;56.21;102286.56;5103610;28;20051;-59
2022/03/16 02:55:45;;;;;;;14.85;9.98;;;;;;;10.07;55.78;102280.34;5098410;28;20052;-60
2022/03/16 02:58:13;;;;;;;15.30;9.50;;;;;;;10.06;56.00;102285.91;5102202;28;20071;-61
2022/03/16 03:00:41;;;;;;;12.10;9.57;;;;;;;10.05;56.16;102279.72;5096513;28;20075;-59
2022/03/16 03:03:10;;;;;;;12.90;9.32;;;;;;;10.06;56.50;102277.84;5103736;28;20097;-60
2022/03/16 03:05:38;;;;;;;12.95;10.13;;;;;;;10.05;56.44;102281.56;5101890;28;20135;-59
2022/03/16 03:08:05;;;;;;;12.88;9.73;;;;;;;10.04;56.06;102280.72;5103392;28;20052;-60
2022/03/16 03:10:33;;;;;;;12.60;9.75;;;;;;;10.04;56.16;102274.50;5103570;28;20127;-60
2022/03/16 03:13:03;;;;;;;14.52;9.32;;;;;;;10.03;56.07;102276.38;5099191;28;20071;-60
2022/03/16 03:15:30;;;;;;;12.52;8.85;;;;;;;10.03;56.41;102273.69;5100426;28;20066;-59
2022/03/16 03:17:58;;;;;;;12.23;9.23;;;;;;;10.02;55.78;102274.69;5102304;28;20116;-59
2022/03/16 03:20:26;;;;;;;11.93;8.90;;;;;;;10.01;56.58;102269.50;5092748;28;20063;-60
2022/03/16 03:22:54;;;;;;;13.95;9.80;;;;;;;10.01;56.18;102280.25;5097784;28;20079;-59
2022/03/16 03:25:22;;;;;;;13.68;9.80;;;;;;;9.99;55.98;102285.81;5103069;28;20381;-59
2022/03/16 03:27:50;;;;;;;15.40;9.10;;;;;;;9.98;56.07;102286.00;5100494;28;20067;-59
2022/03/16 03:30:19;;;;;;;11.63;9.38;;;;;;;9.96;56.16;102286.16;5102455;28;20058;-59
2022/03/16 03:32:46;;;;;;;12.85;9.63;;;;;;;9.96;56.49;102291.53;5100181;28;20068;-59
2022/03/16 03:35:14;;;;;;;13.02;10.00;;;;;;;9.93;55.75;102277.66;5102378;28;20072;-59
2022/03/16 03:37:42;;;;;;;12.38;9.82;;;;;;;9.92;55.98;102287.56;5102918;28;20370;-59
2022/03/16 03:40:10;;;;;;;14.23;10.60;;;;;;;9.90;56.39;102280.69;5100181;28;20474;-59
2022/03/16 03:42:38;;;;;;;12.50;9.30;;;;;;;9.88;56.46;102267.44;5102915;28;20055;-59
2022/03/16 03:45:07;;;;;;;13.68;9.88;;;;;;;9.90;56.41;102275.31;5099780;28;20116;-60
2022/03/16 03:47:36;;;;;;;12.38;9.05;;;;;;;9.88;55.61;102269.31;5102996;28;20055;-59
2022/03/16 03:50:05;;;;;;;12.15;8.88;;;;;;;9.88;56.14;102275.50;5102237;28;20123;-59
2022/03/16 03:52:32;;;;;;;13.65;9.48;;;;;;;9.86;56.38;102274.03;5099755;28;20895;-59
2022/03/16 03:55:00;;;;;;;14.13;10.05;;;;;;;9.83;56.53;102269.00;5098129;28;20080;-59
2022/03/16 03:57:28;;;;;;;12.75;8.98;;;;;;;9.84;56.23;102270.69;5099819;28;20504;-60
2022/03/16 03:59:55;;;;;;;13.00;9.32;;;;;;;9.83;56.12;102277.91;5102130;28;20507;-58
2022/03/16 04:02:23;;;;;;;12.90;9.10;;;;;;;9.82;56.42;102273.56;5102914;28;20094;-59
2022/03/16 04:04:52;;;;;;;12.45;9.25;;;;;;;9.81;55.67;102282.63;5102051;28;20048;-59
2022/03/16 04:07:20;;;;;;;13.50;9.40;;;;;;;9.79;55.91;102280.13;5098226;28;20040;-59
2022/03/16 04:09:50;;;;;;;12.30;9.55;;;;;;;9.78;56.50;102281.13;5102113;28;20044;-59
2022/03/16 04:12:18;;;;;;;13.73;8.30;;;;;;;9.78;55.71;102274.94;5102086;28;20078;-60
2022/03/16 04:14:47;;;;;;;14.15;10.20;;;;;;;9.77;55.99;102270.56;5102056;28;20074;-60
2022/03/16 04:17:14;;;;;;;11.85;9.02;;;;;;;9.76;55.62;102272.44;5103318;28;20086;-59
2022/03/16 04:19:42;;;;;;;11.27;9.40;;;;;;;9.75;55.82;102276.13;5100987;28;20063;-60
2022/03/16 04:22:11;;;;;;;13.70;9.68;;;;;;;9.75;56.01;102275.28;5098193;28;20040;-59
2022/03/16 04:24:39;;;;;;;14.13;9.43;;;;;;;9.73;56.45;102272.78;5101689;28;20075;-59
2022/03/16 04:27:06;;;;;;;12.68;9.77;;;;;;;9.74;55.82;102274.47;5100917;28;20075;-59
2022/03/16 04:29:34;;;;;;;13.25;9.27;;;;;;;9.72;56.01;102271.13;5095206;28;20044;-60
2022/03/16 04:32:02;;;;;;;12.85;9.18;;;;;;;9.71;56.00;102272.13;5100237;28;20079;-60
2022/03/16 04:34:30;;;;;;;15.57;10.07;;;;;;;9.70;56.49;102267.78;5095732;28;20083;-59
2022/03/16 04:36:58;;;;;;;14.27;9.73;;;;;;;9.70;56.08;102275.84;5099269;28;20050;-59
2022/03/16 04:39:27;;;;;;;12.52;9.88;;;;;;;9.70;56.20;102275.00;5097374;28;20158;-59
2022/03/16 04:41:55;;;;;;;12.73;9.63;;;;;;;9.69;56.49;102274.16;5101586;28;20186;-59
2022/03/16 04:44:23;;;;;;;12.70;9.32;;;;;;;9.68;56.11;102272.50;5096441;28;20098;-58
2022/03/16 04:46:51;;;;;;;14.68;10.27;;;;;;;9.68;56.48;102279.72;5101549;28;20048;-58
2022/03/16 04:49:19;;;;;;;13.45;9.35;;;;;;;9.67;56.08;102275.38;5104975;28;20072;-60
2022/03/16 04:51:46;;;;;;;16.00;10.70;;;;;;;9.67;56.45;102278.03;5102836;28;20071;-59
2022/03/16 04:54:16;;;;;;;13.10;9.75;;;;;;;9.65;56.00;102278.22;5105094;28;20090;-59
2022/03/16 04:56:46;;;;;;;14.15;11.05;;;;;;;9.65;56.00;102275.53;5106645;28;20047;-59
2022/03/16 04:59:14;;;;;;;13.02;9.75;;;;;;;9.65;56.54;102278.22;5105271;28;20040;-59
2022/03/16 05:01:41;;;;;;;13.40;11.02;;;;;;;9.63;55.70;102282.94;5103486;28;20071;-58
2022/03/16 05:04:14;;;;;;;13.85;11.27;;;;;;;9.62;56.15;102281.28;5105429;28;20052;-59
2022/03/16 05:06:42;;;;;;;13.60;10.68;;;;;;;9.59;56.17;102283.47;5104766;28;20072;-59
2022/03/16 05:09:10;;;;;;;13.35;9.95;;;;;;;9.60;56.47;102282.47;5098482;28;20080;-59
2022/03/16 05:11:40;;;;;;;15.75;11.30;;;;;;;9.57;55.96;102272.09;5104930;28;20068;-59
2022/03/16 05:14:10;;;;;;;14.32;10.90;;;;;;;9.59;55.88;102272.75;5101173;28;20482;-60
2022/03/16 05:16:38;;;;;;;14.80;11.48;;;;;;;9.57;55.68;102272.09;5099700;28;20060;-59
2022/03/16 05:19:06;;;;;;;16.92;10.73;;;;;;;9.55;56.33;102266.91;5101316;28;20051;-59
2022/03/16 05:21:34;;;;;;;13.05;10.45;;;;;;;9.54;56.38;102262.56;5103200;28;20087;-59
2022/03/16 05:24:01;;;;;;;13.73;10.05;;;;;;;9.52;56.49;102264.56;5105903;28;20075;-60
2022/03/16 05:26:29;;;;;;;13.65;10.45;;;;;;;9.54;55.71;102261.72;5103296;28;20044;-60
2022/03/16 05:28:57;;;;;;;15.93;11.40;;;;;;;9.52;56.34;102258.38;5094480;28;20048;-60
2022/03/16 05:31:26;;;;;;;13.70;10.32;;;;;;;9.50;55.69;102263.94;5095143;28;20067;-59
2022/03/16 05:33:54;;;;;;;16.25;10.95;;;;;;;9.50;56.10;102252.34;5100841;28;20074;-58
2022/03/16 05:36:21;;;;;;;12.93;9.80;;;;;;;9.49;56.15;102253.38;5102349;28;20055;-61
2022/03/16 05:38:49;;;;;;;14.98;10.65;;;;;;;9.47;56.09;102253.56;5101452;28;20071;-60
2022/03/16 05:41:17;;;;;;;13.32;9.88;;;;;;;9.46;55.68;102255.41;5102900;28;20102;-60
2022/03/16 05:43:45;;;;;;;16.02;11.57;;;;;;;9.45;55.80;102256.41;5103355;28;20055;-58
2022/03/16 05:46:13;;;;;;;14.45;11.20;;;;;;;9.45;56.12;102261.78;5104189;28;20090;-59
2022/03/16 05:48:42;;;;;;;13.40;10.10;;;;;;;9.44;56.51;102270.84;5104049;28;20093;-60
2022/03/16 05:51:10;;;;;;;13.95;9.75;;;;;;;9.43;56.84;102277.22;5103116;28;20126;-58
2022/03/16 05:53:38;;;;;;;15.35;10.13;;;;;;;9.43;55.65;102277.22;5095217;28;20071;-59
2022/03/16 05:56:06;;;;;;;12.30;9.65;;;;;;;9.43;56.22;102279.06;5102966;28;20048;-58
2022/03/16 05:58:33;;;;;;;13.10;9.45;;;;;;;9.43;56.30;102287.13;5104187;28;20048;-59
2022/03/16 06:01:01;;;;;;;12.82;9.60;;;;;;;9.42;56.21;102283.59;5098960;28;20121;-59
2022/03/16 06:03:29;;;;;;;13.43;10.13;;;;;;;9.42;56.30;102280.09;5096963;28;20050;-59
2022/03/16 06:05:58;;;;;;;14.60;9.63;;;;;;;9.41;56.42;102275.72;5103790;28;20044;-60
2022/03/16 06:08:26;;;;;;;13.77;9.40;;;;;;;9.40;56.11;102280.25;5103737;28;20090;-61
2022/03/16 06:10:54;;;;;;;13.63;9.90;;;;;;;9.41;56.53;102281.94;5102808;28;20079;-60
2022/03/16 06:13:23;;;;;;;14.10;9.88;;;;;;;9.40;55.63;102292.84;5094330;28;20068;-60
2022/03/16 06:15:50;;;;;;;14.35;10.13;;;;;;;9.40;55.73;102290.16;5103456;28;20044;-59
2022/03/16 06:18:18;;;;;;;12.25;9.50;;;;;;;9.39;55.76;102292.00;5104305;28;20048;-59
2022/03/16 06:20:46;;;;;;;12.85;9.20;;;;;;;9.39;56.26;102283.13;5090824;28;20048;-60
2022/03/16 06:23:15;;;;;;;13.68;10.00;;;;;;;9.37;56.31;102277.09;5103810;28;20076;-59
2022/03/16 06:25:42;;;;;;;11.80;9.43;;;;;;;9.38;56.10;102286.81;5105031;28;20048;-60
2022/03/16 06:28:10;;;;;;;13.20;9.35;;;;;;;9.37;56.19;102287.84;5093432;28;20051;-61
2022/03/16 06:30:38;;;;;;;12.45;8.90;;;;;;;9.37;55.91;102288.66;5102445;28;20102;-60
2022/03/16 06:33:05;;;;;;;14.75;9.80;;;;;;;9.36;56.76;102286.16;5101244;28;20040;-61
2022/03/16 06:35:34;;;;;;;12.52;9.20;;;;;;;9.29;55.95;102272.63;5102012;28;20076;-59
2022/03/16 06:38:02;;;;;;;13.07;9.60;;;;;;;9.33;56.21;102281.16;5103926;28;20075;-59
2022/03/16 06:40:31;;;;;;;13.65;9.25;;;;;;;9.34;56.70;102289.03;5094937;28;20082;-60
2022/03/16 06:43:00;;;;;;;13.23;9.32;;;;;;;9.34;56.08;102290.88;5102692;28;20131;-61
2022/03/16 06:45:29;;;;;;;14.23;9.82;;;;;;;9.33;56.76;102282.00;5090830;28;20063;-61
2022/03/16 06:47:59;;;;;;;13.57;9.38;;;;;;;9.33;55.89;102284.69;4739703;28;10000569;-60
2022/03/16 06:50:28;;;;;;;13.13;9.10;;;;;;;9.33;56.34;102273.94;5100021;28;20067;-61
2022/03/16 06:52:56;;;;;;;13.02;8.75;;;;;;;9.33;56.49;102275.78;5100192;28;20044;-59
2022/03/16 06:55:25;;;;;;;12.77;8.80;;;;;;;9.33;56.69;102265.06;5096967;28;20048;-60
2022/03/16 06:57:54;;;;;;;13.90;9.10;;;;;;;9.34;56.75;102264.88;5099910;28;20082;-59
2022/03/16 07:00:22;;;;;;;13.90;8.82;;;;;;;9.31;56.27;102259.88;5096277;28;20051;-59
2022/03/16 07:02:55;;;;;;;13.15;8.95;;;;;;;9.34;56.22;102258.69;5098620;28;20048;-60
2022/03/16 07:05:26;;;;;;;13.43;8.60;;;;;;;9.33;56.87;102265.91;5092103;28;20052;-60
2022/03/16 07:07:56;;;;;;;11.88;8.60;;;;;;;9.32;56.62;102249.97;5098596;28;20044;-61
2022/03/16 07:10:24;;;;;;;12.10;8.48;;;;;;;9.36;56.52;102253.97;5099668;28;20151;-61
2022/03/16 07:12:52;;;;;;;12.20;8.93;;;;;;;9.35;56.75;102252.31;5095912;28;20098;-60
2022/03/16 07:15:21;;;;;;;12.40;8.48;;;;;;;9.35;57.01;102261.19;5095875;28;20052;-61
2022/03/16 07:17:49;;;;;;;11.18;8.45;;;;;;;9.35;56.55;102255.81;4744838;28;10000668;-61
2022/03/16 07:20:17;;;;;;;13.48;9.02;;;;;;;9.35;56.18;102260.34;5100943;28;20043;-61
2022/03/16 07:22:45;;;;;;;13.45;8.63;;;;;;;9.36;56.10;102254.81;5102679;28;20103;-61
2022/03/16 07:25:21;;;;;;;11.93;9.27;;;;;;;9.35;56.25;102260.34;5098548;28;20522;-61
2022/03/16 07:27:49;;;;;;;10.82;7.95;;;;;;;9.36;57.23;102245.91;5104061;28;20145;-61
2022/03/16 07:30:18;;;;;;;11.30;7.82;;;;;;;9.36;56.24;102245.91;5102930;28;20068;-61
2022/03/16 07:32:47;;;;;;;11.88;8.68;;;;;;;9.35;56.72;102237.03;5101693;28;20048;-60
2022/03/16 07:35:15;;;;;;;11.88;7.60;;;;;;;9.37;57.07;102235.00;5097697;28;20063;-59
2022/03/16 07:37:44;;;;;;;11.07;7.88;;;;;;;9.38;56.50;102235.84;5087941;28;20170;-60
2022/03/16 07:40:13;;;;;;;10.10;7.63;;;;;;;9.38;56.28;102239.38;5098651;28;20052;-61
2022/03/16 07:42:46;;;;;;;10.15;7.65;;;;;;;9.33;57.25;102236.38;5095085;28;20094;-60
2022/03/16 07:45:15;;;;;;;11.23;8.30;;;;;;;9.39;57.14;102238.34;5084954;28;20043;-60
2022/03/16 07:47:43;;;;;;;10.90;7.32;;;;;;;9.42;56.71;102237.16;5099137;28;20051;-61
2022/03/16 07:50:12;;;;;;;10.40;7.70;;;;;;;9.43;56.56;102241.50;5098643;28;20083;-62
2022/03/16 07:52:40;;;;;;;10.68;6.90;;;;;;;9.43;56.92;102238.81;5092958;28;20539;-61
2022/03/16 07:55:09;;;;;;;11.40;7.35;;;;;;;9.44;56.47;102243.19;5099559;28;20047;-61
2022/03/16 07:57:37;;;;;;;9.68;6.80;;;;;;;9.44;56.90;102252.06;5099973;28;20127;-61
2022/03/16 08:00:06;;;;;;;11.48;7.88;;;;;;;9.45;56.96;102240.31;5094839;28;20047;-61
2022/03/16 08:02:34;;;;;;;11.55;8.73;;;;;;;9.45;56.79;102245.69;5099197;28;20048;-63
2022/03/16 08:05:02;;;;;;;11.70;8.15;;;;;;;9.47;57.25;102253.56;5098632;28;20090;-61
2022/03/16 08:07:31;;;;;;;13.48;7.10;;;;;;;9.50;57.02;102250.50;5098097;28;20063;-61
2022/03/16 08:10:00;;;;;;;12.85;7.53;;;;;;;9.49;56.77;102251.53;5098932;28;20047;-61
2022/03/16 08:12:28;;;;;;;10.00;7.30;;;;;;;9.53;57.25;102250.16;5097996;28;20052;-61
2022/03/16 08:14:55;;;;;;;12.50;7.70;;;;;;;9.53;56.91;102241.25;5098341;28;20067;-60
2022/03/16 08:17:23;;;;;;;9.73;7.05;;;;;;;9.53;57.33;102239.41;5104670;28;20119;-62
2022/03/16 08:19:51;;;;;;;11.35;7.43;;;;;;;9.52;57.00;102237.75;5095918;28;20075;-60
2022/03/16 08:22:25;;;;;;;11.20;7.28;;;;;;;9.52;57.04;102240.44;5116255;28;20052;-60
2022/03/16 08:24:55;;;;;;;11.80;6.97;;;;;;;9.54;57.31;102238.41;5097464;28;20127;-62
2022/03/16 08:27:24;;;;;;;9.20;6.82;;;;;;;9.52;57.31;102236.91;5099555;28;20068;-62
2022/03/16 08:29:52;;;;;;;14.32;8.18;;;;;;;9.53;57.07;102246.63;5093707;28;20040;-61
2022/03/16 08:32:20;;;;;;;11.07;7.70;;;;;;;9.57;56.86;102240.72;5103071;28;20112;-61
2022/03/16 08:34:48;;;;;;;10.75;7.32;;;;;;;9.60;57.17;102234.16;5101866;28;20612;-61
2022/03/16 08:37:17;;;;;;;12.52;7.55;;;;;;;9.59;56.96;102235.16;5100996;28;20048;-60
2022/03/16 08:39:45;;;;;;;9.55;7.00;;;;;;;9.72;58.39;102244.28;5102213;28;20074;-62
2022/03/16 08:42:16;;;;;;;10.65;7.15;;;;;;;9.74;57.83;102244.09;5093590;28;20067;-61
2022/03/16 08:44:46;;;;;;;11.30;7.60;;;;;;;9.71;56.86;102244.44;5102508;28;20055;-60
2022/03/16 08:47:16;;;;;;;10.77;7.78;;;;;;;9.70;57.43;102254.34;5104071;28;20055;-61
2022/03/16 08:49:45;;;;;;;9.73;7.43;;;;;;;9.72;57.70;102251.50;5103248;28;20050;-61
2022/03/16 08:52:13;;;;;;;11.43;8.00;;;;;;;9.71;57.79;102256.03;5103665;28;20060;-61
2022/03/16 08:54:42;;;;;;;13.52;8.23;;;;;;;9.73;58.35;102256.69;5104058;28;20120;-61
2022/03/16 08:57:10;;;;;;;12.93;7.82;;;;;;;9.77;57.26;102268.72;5103513;28;20121;-62
2022/03/16 08:59:39;;;;;;;13.88;8.73;;;;;;;9.79;57.97;102272.06;5102915;28;20059;-60
2022/03/16 09:02:09;;;;;;;17.05;11.15;;;;;;;9.82;57.63;102265.50;5103876;28;20085;-61
2022/03/16 09:04:37;;;;;;;16.25;11.07;;;;;;;9.82;57.96;102268.19;5096609;28;20040;-61
2022/03/16 09:07:05;;;;;;;19.50;12.65;;;;;;;9.85;57.38;102269.66;5104941;28;20043;-61
2022/03/16 09:09:38;;;;;;;16.90;12.23;;;;;;;9.84;57.62;102258.09;5103345;28;20086;-62
2022/03/16 09:12:08;;;;;;;17.17;12.80;;;;;;;9.83;57.66;102259.09;5104990;28;20349;-61
2022/03/16 09:14:36;;;;;;;18.33;11.88;;;;;;;9.85;57.68;102258.94;5105262;28;20048;-62
2022/03/16 09:17:06;;;;;;;18.48;11.43;;;;;;;9.85;57.40;102251.69;5104414;28;20047;-62
2022/03/16 09:19:34;;;;;;;16.65;10.40;;;;;;;9.87;58.03;102241.63;5100512;28;20076;-61
2022/03/16 09:22:02;;;;;;;15.95;10.63;;;;;;;9.89;58.23;102253.00;5099323;28;20115;-61
2022/03/16 09:24:30;;;;;;;14.02;9.68;;;;;;;9.94;58.00;102255.16;5104769;28;20159;-61
2022/03/16 09:26:59;;;;;;;16.23;10.63;;;;;;;9.98;58.52;102243.03;5105021;28;20044;-62
2022/03/16 09:29:29;;;;;;;18.95;11.48;;;;;;;9.99;57.97;102245.53;5095056;28;20048;-61
2022/03/16 09:32:07;;;;;;;19.13;11.82;;;;;;;9.99;58.48;102237.47;5104396;28;20036;-61
2022/03/16 09:34:36;;;;;;;19.67;12.20;;;;;;;10.00;58.08;102246.34;5104872;28;20043;-61
2022/03/16 09:37:05;;;;;;;17.38;11.35;;;;;;;10.01;58.68;102253.41;5104226;28;20046;-62
2022/03/16 09:39:33;;;;;;;21.42;12.23;;;;;;;10.03;58.28;102245.97;5103733;28;20048;-61
2022/03/16 09:42:03;;;;;;;15.90;11.32;;;;;;;10.04;58.63;102244.97;5097343;28;20064;-61
2022/03/16 09:44:31;;;;;;;16.92;10.98;;;;;;;10.05;58.66;102236.72;5093162;28;20059;-62
2022/03/16 09:47:01;;;;;;;20.60;11.15;;;;;;;10.06;59.16;102242.94;5101139;28;20109;-61
2022/03/16 09:49:30;;;;;;;15.43;10.20;;;;;;;10.07;59.12;102237.38;5096470;28;20359;-61
2022/03/16 09:51:59;;;;;;;15.70;10.18;;;;;;;10.11;59.04;102222.56;5102024;28;20048;-62
2022/03/16 09:54:27;;;;;;;14.07;10.13;;;;;;;10.16;59.54;102222.00;5104832;28;20048;-62
2022/03/16 09:56:56;;;;;;;19.05;9.85;;;;;;;10.20;59.12;102222.50;5105054;28;20044;-61
2022/03/16 09:59:23;;;;;;;13.73;9.70;;;;;;;10.23;58.88;102222.13;5100956;28;20113;-61
2022/03/16 10:01:58;;;;;;;14.43;9.45;;;;;;;10.28;59.52;102220.56;5091814;28;20060;-61
2022/03/16 10:04:33;;;;;;;14.50;9.68;;;;;;;10.50;58.81;102221.41;5099948;28;20043;-62
2022/03/16 10:07:02;;;;;;;14.20;9.32;;;;;;;10.38;59.03;102226.47;5105140;28;20058;-61
2022/03/16 10:15:10;;;;;;;11.43;8.20;;;;;;;10.47;59.17;102210.22;5096292;28;20078;-61
2022/03/16 10:17:44;;;;;;;15.40;7.90;;;;;;;10.47;59.78;102216.41;5105180;28;20446;-61
2022/03/16 10:20:21;;;;;;;10.77;8.00;;;;;;;10.45;59.18;102205.03;5103630;28;20048;-61
2022/03/16 10:22:58;;;;;;;12.55;9.30;;;;;;;10.43;59.61;102197.16;5101029;28;20063;-61
2022/03/16 10:25:26;;;;;;;;;;;;;;;10.49;59.32;102200.09;5105119;28;20064;-61
2022/03/16 10:28:10;;;;;;;12.48;7.82;;;;;;;10.52;59.88;102203.25;5104839;28;19962;-62
2022/03/16 10:30:56;;;;;;;9.57;7.32;;;;;;;10.54;59.40;102203.06;5103292;28;20063;-61
2022/03/16 10:33:26;;;;;;;10.68;7.75;;;;;;;10.56;59.54;102198.34;5101199;28;20112;-60
2022/03/16 10:35:57;;;;;;;11.80;7.90;;;;;;;10.59;59.82;102204.16;5103224;28;20051;-60
2022/03/16 10:38:26;;;;;;;12.15;8.35;;;;;;;10.59;59.59;102196.09;5103770;28;20083;-61
2022/03/16 10:41:10;;;;;;;12.82;8.07;;;;;;;10.65;59.69;102202.56;5104657;28;20052;-59
2022/03/16 10:46:38;;;;;;;11.50;8.00;;;;;;;10.68;59.31;102203.03;5104788;28;20083;-60
2022/03/16 10:49:09;;;;;;;10.90;7.28;;;;;;;10.70;59.75;102194.78;5098259;28;20052;-60
2022/03/16 10:51:39;;;;;;;10.50;7.55;;;;;;;10.72;59.78;102201.63;5103716;28;20048;-59
2022/03/16 10:54:25;;;;;;;11.38;7.35;;;;;;;10.76;59.89;102199.41;5100854;28;20052;-60
2022/03/16 10:56:54;;;;;;;9.38;7.00;;;;;;;10.82;59.79;102203.19;5099524;28;20060;-60
2022/03/16 10:59:26;;;;;;;9.90;6.68;;;;;;;10.84;59.67;102195.75;5103504;28;20067;-60
2022/03/16 11:01:57;;;;;;;10.10;6.90;;;;;;;10.85;59.55;102200.94;5104571;28;20055;-60
2022/03/16 11:04:25;;;;;;;10.02;6.70;;;;;;;10.88;59.90;102197.03;5102277;28;20123;-61
2022/03/16 11:06:56;;;;;;;8.90;6.43;;;;;;;10.91;59.79;102200.19;5103920;28;20043;-60
2022/03/16 11:09:25;;;;;;;9.10;6.50;;;;;;;10.94;59.67;102189.03;5095957;28;20044;-60
2022/03/16 11:14:38;;;;;;;10.75;6.40;;;;;;;11.03;59.94;102190.59;5101773;28;20044;-61
2022/03/16 11:17:06;;;;;;;10.20;6.75;;;;;;;11.08;60.37;102192.69;5101572;28;20193;-61
2022/03/16 11:19:36;;;;;;;12.77;6.57;;;;;;;11.12;60.22;102193.97;5103775;28;20063;-60
2022/03/16 11:22:10;;;;;;;9.25;6.30;;;;;;;11.16;60.42;102191.75;5103421;28;20052;-60
2022/03/16 11:24:42;;;;;;;10.85;6.32;;;;;;;11.20;60.47;102193.84;5095164;28;20078;-59
2022/03/16 11:27:35;;;;;;;9.00;5.43;;;;;;;11.27;60.21;102193.91;5102842;28;20133;-60
2022/03/16 11:30:13;;;;;;;10.50;6.63;;;;;;;11.28;60.34;102209.03;5098346;28;20051;-60
2022/03/16 11:32:43;;;;;;;11.63;7.10;;;;;;;11.28;60.81;102192.88;5103447;28;20048;-61
2022/03/16 11:35:13;;;;;;;8.98;5.75;;;;;;;11.33;61.10;102195.84;5099221;28;20053;-61
2022/03/16 11:37:46;;;;;;;9.30;5.50;;;;;;;11.38;60.66;102202.28;5102118;28;20050;-61
2022/03/16 11:40:16;;;;;;;9.50;5.47;;;;;;;11.38;60.13;102199.59;5099278;28;20040;-61